Terminal Aerodrome Forecast
Issued by NWS

Home | Current Version | Previous Version | Text Only | Print | Product List | Glossary On
Versions: 1 2 3 4 5 6 7 8 9 10 11 12 13 14 15 16 17
000
FTUS41 KCAR 280530
TAFFVE
TAF
KFVE 280530Z 2806/2906 36015G25KT P6SM SCT015 BKN025
      TEMPO 2806/2808 BKN015
     FM280800 01015G25KT P6SM OVC015
     FM281700 35020G30KT P6SM -SHRA OVC025
     FM282000 36020G30KT P6SM SCT025 BKN040
     FM290100 36012G22KT P6SM SCT015 OVC025=

USA.gov is the U.S. government's official web portal to all federal, state and local government web resources and services.